Time;durP1;ratioP1;P1;durP2;ratioP2;P2;SDS_P1;SDS_P2;PMS_P1;PMS_P2;Temp;Humidity;BMP_temperature;BMP_pressure;BME280_temperature;BME280_humidity;BME280_pressure;Samples;Min_cycle;Max_cycle;Signal;HPM_P1;HPM_P2
2022/04/01 03:00:21;;;;;;;3.10;1.48;;;1.20;99.90;;;;;;5962480;23;20291;-83
2022/04/01 03:02:48;;;;;;;5.90;1.35;;;1.20;99.90;;;;;;4917251;29;20135;-84
2022/04/01 03:05:13;;;;;;;3.85;1.90;;;1.20;99.90;;;;;;4918361;29;20064;-85
2022/04/01 03:07:39;;;;;;;8.70;1.85;;;1.20;99.90;;;;;;4917961;29;20488;-83
2022/04/01 03:10:05;;;;;;;3.72;1.55;;;1.20;99.90;;;;;;4918138;29;20048;-84
2022/04/01 03:12:31;;;;;;;6.15;1.50;;;1.20;99.90;;;;;;4918064;29;20055;-83
2022/04/01 03:14:57;;;;;;;5.30;2.13;;;1.20;99.90;;;;;;4918151;29;20056;-84
2022/04/01 03:17:22;;;;;;;5.35;1.88;;;1.20;99.90;;;;;;4917046;29;20512;-83
2022/04/01 03:19:48;;;;;;;3.47;1.65;;;1.20;99.90;;;;;;4919454;29;20125;-85
2022/04/01 03:22:13;;;;;;;3.83;1.50;;;1.20;99.90;;;;;;4917526;29;20480;-84
2022/04/01 03:24:39;;;;;;;4.25;1.75;;;1.20;99.90;;;;;;4917908;29;20044;-83
2022/04/01 03:27:04;;;;;;;4.88;1.60;;;1.20;99.90;;;;;;4902055;29;20055;-84
2022/04/01 03:29:32;;;;;;;4.72;1.67;;;1.20;99.90;;;;;;4919192;29;20040;-84
2022/04/01 03:31:58;;;;;;;4.03;1.50;;;1.20;99.90;;;;;;4917457;29;20048;-85
2022/04/01 03:34:24;;;;;;;3.35;1.30;;;1.20;99.90;;;;;;4902205;29;20051;-83
2022/04/01 03:36:49;;;;;;;3.67;1.60;;;1.30;99.90;;;;;;4917467;29;20044;-83
2022/04/01 03:39:16;;;;;;;3.58;1.55;;;1.30;99.90;;;;;;4918644;29;20392;-82
2022/04/01 03:41:42;;;;;;;3.45;1.52;;;1.30;99.90;;;;;;4918024;29;20115;-82
2022/04/01 03:44:09;;;;;;;5.55;1.60;;;1.20;99.90;;;;;;4917268;29;20613;-83
2022/04/01 03:46:52;;;;;;;3.10;1.40;;;1.30;99.90;;;;;;4918761;29;20055;-86
2022/04/01 03:49:24;;;;;;;4.60;1.50;;;1.30;99.90;;;;;;4901644;29;20383;-85
2022/04/01 03:51:51;;;;;;;4.00;1.80;;;1.30;99.90;;;;;;4905357;29;20093;-83
2022/04/01 03:54:18;;;;;;;4.30;1.60;;;1.30;99.90;;;;;;4921239;29;20056;-83
2022/04/01 03:56:49;;;;;;;5.38;1.60;;;1.20;99.90;;;;;;4922700;29;20099;-85
2022/04/01 03:59:17;;;;;;;3.75;1.50;;;1.20;99.90;;;;;;4921123;29;20625;-84
2022/04/01 04:01:43;;;;;;;6.78;1.95;;;1.20;99.90;;;;;;4921076;29;20036;-83
2022/04/01 04:04:09;;;;;;;4.45;1.60;;;1.20;99.90;;;;;;4905311;29;20044;-84
2022/04/01 04:06:39;;;;;;;3.55;1.58;;;1.20;99.90;;;;;;4921124;29;20068;-82
2022/04/01 04:09:07;;;;;;;3.88;1.50;;;1.30;99.90;;;;;;4921126;29;20048;-84
2022/04/01 04:11:34;;;;;;;5.07;1.60;;;1.20;99.90;;;;;;4921264;29;20047;-81
2022/04/01 04:14:03;;;;;;;4.72;1.70;;;1.20;99.90;;;;;;4922745;29;20442;-83
2022/04/01 04:16:29;;;;;;;5.22;1.70;;;1.20;99.90;;;;;;4920743;29;20058;-83
2022/04/01 04:19:09;;;;;;;5.03;1.83;;;1.20;99.90;;;;;;4906168;29;20040;-84
2022/04/01 04:21:49;;;;;;;6.70;1.70;;;1.30;99.90;;;;;;4921515;29;20076;-83
2022/04/01 04:24:20;;;;;;;3.90;1.70;;;1.20;99.90;;;;;;4919980;29;20073;-83
2022/04/01 04:26:50;;;;;;;3.50;1.58;;;1.20;99.90;;;;;;4921304;29;20485;-86
2022/04/01 04:29:20;;;;;;;5.30;1.70;;;1.20;99.90;;;;;;4921544;29;20048;-85
2022/04/01 04:31:59;;;;;;;6.18;1.65;;;1.20;99.90;;;;;;4921460;29;20512;-86
2022/04/01 04:34:38;;;;;;;4.20;1.60;;;1.30;99.90;;;;;;4920366;29;20059;-85
2022/04/01 04:37:11;;;;;;;4.55;1.77;;;1.30;99.90;;;;;;4920969;29;20052;-83
2022/04/01 04:39:40;;;;;;;5.07;1.58;;;1.20;99.90;;;;;;4921604;29;20040;-85
2022/04/01 04:42:09;;;;;;;3.03;1.50;;;1.20;99.90;;;;;;4920552;29;20044;-84
2022/04/01 04:44:35;;;;;;;4.50;1.48;;;1.30;99.90;;;;;;4905418;29;20441;-85
2022/04/01 04:47:03;;;;;;;8.82;1.95;;;1.30;99.90;;;;;;4920099;29;20366;-82
2022/04/01 04:49:30;;;;;;;7.32;1.50;;;1.30;99.90;;;;;;4919907;29;20048;-85
2022/04/01 04:51:57;;;;;;;5.78;1.67;;;1.30;99.90;;;;;;4919920;29;20123;-83
2022/04/01 04:54:26;;;;;;;5.60;1.50;;;1.30;99.90;;;;;;4904522;29;20048;-83
2022/04/01 04:56:55;;;;;;;3.08;1.38;;;1.30;99.90;;;;;;4919768;29;20472;-82
2022/04/01 04:59:22;;;;;;;7.20;1.52;;;1.30;99.90;;;;;;4921404;29;20036;-84
2022/04/01 05:02:06;;;;;;;4.10;1.45;;;1.30;99.90;;;;;;4919602;29;20051;-85
2022/04/01 05:05:04;;;;;;;3.75;1.20;;;1.30;99.90;;;;;;4920268;29;20051;-84
2022/04/01 05:07:56;;;;;;;3.22;1.10;;;1.30;99.90;;;;;;4919731;29;20048;-86
2022/04/01 05:10:41;;;;;;;5.72;1.40;;;1.40;99.90;;;;;;4904167;29;20441;-86
2022/04/01 05:13:21;;;;;;;3.73;1.30;;;1.40;99.90;;;;;;4921376;29;20047;-82
2022/04/01 05:15:52;;;;;;;3.83;1.10;;;1.40;99.90;;;;;;4920119;29;20630;-85
2022/04/01 05:18:40;;;;;;;5.35;1.25;;;1.40;99.90;;;;;;4920097;29;20047;-85
2022/04/01 05:21:18;;;;;;;4.82;1.50;;;1.40;99.90;;;;;;4919995;29;20048;-85
2022/04/01 05:24:00;;;;;;;3.92;1.27;;;1.40;99.90;;;;;;4919986;29;20397;-83
2022/04/01 05:26:42;;;;;;;6.90;1.05;;;1.50;99.90;;;;;;4920021;29;20127;-83
2022/04/01 05:29:25;;;;;;;5.38;1.77;;;1.50;99.90;;;;;;4919466;29;20076;-82
2022/04/01 05:32:04;;;;;;;3.80;1.20;;;1.50;99.90;;;;;;4920136;29;20542;-83
2022/04/01 05:34:49;;;;;;;;;;;1.50;99.90;;;;;;5093651;27;20366;-84
2022/04/01 05:37:17;;;;;;;4.15;1.20;;;1.50;99.90;;;;;;5092727;28;19916;-83
2022/04/01 05:39:48;;;;;;;6.65;1.35;;;1.50;99.90;;;;;;5091935;28;20480;-83
2022/04/01 05:42:18;;;;;;;3.22;1.15;;;1.50;99.90;;;;;;5093225;28;20040;-83
2022/04/01 05:44:43;;;;;;;3.60;1.25;;;1.50;99.90;;;;;;5091249;28;20365;-82
2022/04/01 05:47:10;;;;;;;5.03;1.30;;;1.50;99.90;;;;;;5090509;28;20078;-82
2022/04/01 05:49:44;;;;;;;9.90;1.30;;;1.50;99.90;;;;;;5091087;28;20055;-81
2022/04/01 05:52:12;;;;;;;3.03;0.98;;;1.50;99.90;;;;;;5074271;28;20036;-83
2022/04/01 05:54:40;;;;;;;5.38;1.23;;;1.50;99.90;;;;;;5093085;28;20044;-84
2022/04/01 05:57:08;;;;;;;5.03;1.48;;;1.60;99.90;;;;;;5091450;28;20052;-83
2022/04/01 05:59:34;;;;;;;5.32;1.20;;;1.60;99.90;;;;;;5090773;28;20121;-81
2022/04/01 06:02:21;;;;;;;3.10;1.35;;;1.60;99.90;;;;;;5092292;28;20430;-82
2022/04/01 06:04:56;;;;;;;3.92;1.10;;;1.60;99.90;;;;;;5090754;28;20127;-83
2022/04/01 06:07:53;;;;;;;3.83;1.13;;;1.70;99.90;;;;;;5091370;28;20040;-83
2022/04/01 06:10:30;;;;;;;4.60;1.25;;;1.70;99.90;;;;;;5090948;28;20044;-81
2022/04/01 06:13:29;;;;;;;4.78;1.48;;;1.70;99.90;;;;;;5089337;28;20075;-84
2022/04/01 06:16:18;;;;;;;6.15;1.65;;;1.80;99.90;;;;;;5089438;28;20422;-83
2022/04/01 06:18:51;;;;;;;3.55;1.20;;;1.80;99.90;;;;;;5089154;28;20126;-81
2022/04/01 06:21:23;;;;;;;5.28;1.65;;;1.90;99.90;;;;;;5089478;28;20132;-83
2022/04/01 06:23:53;;;;;;;4.93;1.20;;;1.90;99.90;;;;;;5091329;28;20039;-84
2022/04/01 06:26:20;;;;;;;5.90;1.30;;;1.90;99.90;;;;;;5073771;28;20488;-85
2022/04/01 06:29:13;;;;;;;4.28;1.35;;;2.00;99.90;;;;;;5090579;28;20048;-83
2022/04/01 06:31:57;;;;;;;2.78;1.27;;;2.00;99.90;;;;;;5090920;28;20067;-82
2022/04/01 06:34:28;;;;;;;3.15;1.27;;;2.00;99.90;;;;;;5091060;28;20044;-82
2022/04/01 06:37:01;;;;;;;3.00;1.20;;;2.10;99.90;;;;;;5092697;28;20067;-82
2022/04/01 06:39:41;;;;;;;3.53;1.25;;;2.10;99.90;;;;;;5091102;28;20047;-83
2022/04/01 06:42:12;;;;;;;8.10;1.67;;;2.20;99.90;;;;;;5090449;28;20131;-84
2022/04/01 06:44:37;;;;;;;3.20;1.40;;;2.20;99.90;;;;;;5085058;28;20094;-84
2022/04/01 06:47:03;;;;;;;4.35;1.17;;;2.20;99.90;;;;;;5078338;28;20033;-81
2022/04/01 06:49:29;;;;;;;5.47;1.20;;;2.30;99.90;;;;;;5044017;28;20120;-82
2022/04/01 06:51:55;;;;;;;8.57;2.15;;;2.30;99.90;;;;;;5078281;28;20055;-82
2022/04/01 06:54:40;;;;;;;;;;;;;;;;;;;;;
2022/04/01 06:57:06;;;;;;;5.93;1.45;;;2.40;99.90;;;;;;5076745;28;20105;-84
2022/04/01 06:59:34;;;;;;;2.83;1.10;;;2.40;99.90;;;;;;5076689;28;20036;-84
2022/04/01 07:01:59;;;;;;;4.55;1.63;;;2.40;99.90;;;;;;5076317;28;20090;-82
2022/04/01 07:04:25;;;;;;;4.97;1.45;;;2.40;99.90;;;;;;5076676;28;20048;-82
2022/04/01 07:06:51;;;;;;;3.85;1.67;;;2.50;99.90;;;;;;5076364;28;20087;-82
2022/04/01 07:09:16;;;;;;;3.67;1.30;;;2.50;99.90;;;;;;5077303;28;20142;-83
2022/04/01 07:11:42;;;;;;;4.32;1.30;;;2.50;99.90;;;;;;5080427;28;20036;-82
2022/04/01 07:14:07;;;;;;;4.13;1.30;;;2.60;99.90;;;;;;5082925;28;20120;-82
2022/04/01 07:16:33;;;;;;;4.63;1.70;;;2.60;99.90;;;;;;5095934;28;20079;-81
2022/04/01 07:18:59;;;;;;;6.82;1.40;;;2.60;99.90;;;;;;5087975;28;20036;-82
2022/04/01 07:21:24;;;;;;;2.90;1.15;;;2.70;99.90;;;;;;5079361;28;20072;-81
2022/04/01 07:23:51;;;;;;;2.60;1.33;;;2.70;99.90;;;;;;5059757;28;20075;-84
2022/04/01 07:26:17;;;;;;;3.47;1.45;;;2.70;99.90;;;;;;5075973;28;20048;-83
2022/04/01 07:28:43;;;;;;;2.35;1.08;;;2.80;99.90;;;;;;5077587;28;20049;-83
2022/04/01 07:33:54;;;;;;;2.45;1.10;;;2.90;99.90;;;;;;5075768;28;20084;-83
2022/04/01 07:36:23;;;;;;;3.95;1.23;;;2.90;99.90;;;;;;5076305;28;20404;-83
2022/04/01 07:38:48;;;;;;;9.48;1.30;;;2.90;99.90;;;;;;5076342;28;20040;-82
2022/04/01 07:41:14;;;;;;;3.67;1.23;;;3.00;99.90;;;;;;5075573;28;20066;-83
2022/04/01 07:43:40;;;;;;;2.53;1.08;;;3.10;99.90;;;;;;5075460;28;20044;-84
2022/04/01 07:46:05;;;;;;;8.95;2.58;;;3.10;99.90;;;;;;5075766;28;20044;-83
2022/04/01 07:48:31;;;;;;;3.80;1.20;;;3.20;99.90;;;;;;5077386;28;20052;-83
2022/04/01 07:50:56;;;;;;;5.07;1.58;;;3.20;99.90;;;;;;5077107;28;20045;-83
2022/04/01 07:53:22;;;;;;;2.78;1.00;;;3.20;99.90;;;;;;5075401;28;20158;-84
2022/04/01 07:55:49;;;;;;;3.17;1.02;;;3.30;99.90;;;;;;5074903;28;20041;-84
2022/04/01 07:58:15;;;;;;;5.13;1.73;;;3.30;99.90;;;;;;5076283;28;20388;-82
2022/04/01 08:00:41;;;;;;;3.42;1.10;;;3.30;99.90;;;;;;5058983;28;20036;-82
2022/04/01 08:03:08;;;;;;;5.95;1.25;;;3.30;99.90;;;;;;5058800;28;20048;-82
2022/04/01 08:05:34;;;;;;;2.95;1.20;;;3.40;99.90;;;;;;5075787;28;20076;-81
2022/04/01 08:07:59;;;;;;;4.25;1.50;;;3.40;99.90;;;;;;5075021;28;20055;-82
2022/04/01 08:10:25;;;;;;;3.65;1.02;;;3.40;99.90;;;;;;5058609;28;20045;-83
2022/04/01 08:12:51;;;;;;;4.00;1.13;;;3.50;99.90;;;;;;5076288;28;20545;-82
2022/04/01 08:15:18;;;;;;;4.55;1.35;;;3.40;99.90;;;;;;5075073;28;20041;-83
2022/04/01 08:17:43;;;;;;;2.40;1.20;;;3.50;99.90;;;;;;5076015;28;20075;-83
2022/04/01 08:20:12;;;;;;;3.83;1.42;;;3.50;99.90;;;;;;5074409;28;20113;-83
2022/04/01 08:22:40;;;;;;;3.80;1.30;;;3.50;99.90;;;;;;5076418;28;20098;-82
2022/04/01 08:25:07;;;;;;;2.15;0.90;;;3.40;99.90;;;;;;5075264;28;20042;-80
2022/04/01 08:27:33;;;;;;;2.95;1.20;;;3.40;99.90;;;;;;5058065;28;20148;-81
2022/04/01 08:29:59;;;;;;;5.60;1.50;;;3.40;99.90;;;;;;5076792;28;20451;-82
2022/04/01 08:32:27;;;;;;;3.00;1.35;;;3.50;99.90;;;;;;5057767;28;20097;-83
2022/04/01 08:34:53;;;;;;;3.03;1.20;;;3.50;99.90;;;;;;5075514;28;20068;-83
2022/04/01 08:37:18;;;;;;;3.17;1.10;;;3.50;99.90;;;;;;5057769;28;20044;-82
2022/04/01 08:39:45;;;;;;;3.38;1.38;;;3.50;99.90;;;;;;5074917;28;20045;-84
2022/04/01 08:42:11;;;;;;;6.25;1.38;;;3.50;99.90;;;;;;5075023;28;20421;-83
2022/04/01 08:44:41;;;;;;;5.18;1.60;;;3.50;99.90;;;;;;5075034;28;20487;-84
2022/04/01 08:47:08;;;;;;;4.28;1.75;;;3.50;99.90;;;;;;5074451;28;20063;-84
2022/04/01 08:49:34;;;;;;;5.50;1.77;;;3.60;99.90;;;;;;5076174;28;20072;-82
2022/04/01 08:52:00;;;;;;;4.22;1.63;;;3.50;99.90;;;;;;5074555;28;20080;-83
2022/04/01 08:54:26;;;;;;;8.23;2.03;;;3.50;99.90;;;;;;5075906;28;20075;-83
2022/04/01 08:56:52;;;;;;;2.85;1.40;;;3.50;99.90;;;;;;5076437;28;20036;-83
2022/04/01 08:59:17;;;;;;;4.95;1.58;;;3.60;99.90;;;;;;5074279;28;20390;-82
2022/04/01 09:01:44;;;;;;;6.60;1.88;;;3.50;99.90;;;;;;5074807;28;20141;-84
2022/04/01 09:04:23;;;;;;;4.05;1.95;;;3.50;99.90;;;;;;5057729;28;20392;-83
2022/04/01 09:06:50;;;;;;;4.80;1.80;;;3.60;99.90;;;;;;5057898;28;20476;-83
2022/04/01 09:09:24;;;;;;;3.25;1.70;;;3.70;99.90;;;;;;5073989;28;20123;-82
2022/04/01 09:12:11;;;;;;;3.55;1.60;;;3.70;99.90;;;;;;5074225;28;20040;-83
2022/04/01 09:14:38;;;;;;;4.13;2.00;;;3.80;99.90;;;;;;5073401;28;20496;-80
2022/04/01 09:17:05;;;;;;;6.78;2.10;;;3.80;99.90;;;;;;5073337;28;20140;-81
2022/04/01 09:19:33;;;;;;;4.07;1.95;;;3.70;99.90;;;;;;5057266;28;20116;-82
2022/04/01 09:22:15;;;;;;;5.07;1.80;;;3.50;99.90;;;;;;5073619;28;20055;-82
2022/04/01 09:25:05;;;;;;;6.07;2.17;;;3.50;99.90;;;;;;5057398;28;20045;-84
2022/04/01 09:27:46;;;;;;;7.45;2.35;;;3.40;99.90;;;;;;5075375;28;20045;-85
2022/04/01 09:30:19;;;;;;;3.50;2.30;;;3.30;99.90;;;;;;5073719;28;20048;-84
2022/04/01 09:32:47;;;;;;;6.28;2.30;;;3.20;99.90;;;;;;5073773;28;20080;-85
2022/04/01 09:35:13;;;;;;;5.40;2.38;;;3.00;99.90;;;;;;5074809;28;20051;-84
2022/04/01 09:37:40;;;;;;;10.00;3.40;;;2.90;99.90;;;;;;5056235;28;20049;-82
2022/04/01 09:40:06;;;;;;;5.50;2.45;;;2.90;99.90;;;;;;5073554;28;20048;-81
2022/04/01 09:42:33;;;;;;;3.88;2.03;;;2.90;99.90;;;;;;5073799;28;20108;-84
2022/04/01 09:44:59;;;;;;;4.22;2.20;;;3.00;99.90;;;;;;5057261;28;20384;-82
2022/04/01 09:47:25;;;;;;;5.57;3.08;;;3.20;99.90;;;;;;5073753;28;20439;-82
2022/04/01 09:49:55;;;;;;;6.38;2.95;;;3.40;99.90;;;;;;5057162;28;20036;-83
2022/04/01 09:52:25;;;;;;;4.78;2.83;;;3.60;99.90;;;;;;5074940;28;20096;-85
2022/04/01 09:54:55;;;;;;;7.97;3.75;;;3.70;99.90;;;;;;5073608;28;20120;-83
2022/04/01 09:57:23;;;;;;;8.32;4.18;;;3.60;99.90;;;;;;5073639;28;20048;-83
2022/04/01 09:59:50;;;;;;;7.05;3.88;;;3.60;99.90;;;;;;5075008;28;20052;-84
2022/04/01 10:02:16;;;;;;;5.45;3.42;;;3.70;99.90;;;;;;5073456;28;20036;-82
2022/04/01 10:04:42;;;;;;;6.72;3.22;;;3.70;99.90;;;;;;5073311;28;20043;-84
2022/04/01 10:07:08;;;;;;;5.05;2.88;;;3.80;99.90;;;;;;5073575;28;20518;-83
2022/04/01 10:09:36;;;;;;;5.95;3.03;;;3.70;99.90;;;;;;5073270;28;20036;-82
2022/04/01 10:12:07;;;;;;;7.22;3.60;;;3.70;99.90;;;;;;5073758;28;20488;-81
2022/04/01 10:14:34;;;;;;;5.78;3.67;;;3.80;99.90;;;;;;5074950;28;20037;-82
2022/04/01 10:17:01;;;;;;;8.93;3.65;;;3.80;99.90;;;;;;5074888;28;20037;-82
2022/04/01 10:19:34;;;;;;;8.75;3.42;;;3.90;99.90;;;;;;5073627;28;20060;-83
2022/04/01 10:22:01;;;;;;;9.50;3.88;;;3.90;99.90;;;;;;5077036;28;20043;-83
2022/04/01 10:24:36;;;;;;;5.75;3.03;;;4.20;99.90;;;;;;5078249;28;20397;-82
2022/04/01 10:27:01;;;;;;;5.82;3.22;;;4.40;99.90;;;;;;5077155;28;20068;-81
2022/04/01 10:29:27;;;;;;;5.93;2.90;;;4.50;99.90;;;;;;5078557;28;20045;-84
2022/04/01 10:31:54;;;;;;;4.57;2.53;;;4.70;99.90;;;;;;5078356;28;20083;-84
2022/04/01 10:34:25;;;;;;;4.07;2.30;;;4.90;99.90;;;;;;5076789;28;20066;-84
2022/04/01 10:36:57;;;;;;;4.45;2.30;;;4.90;99.90;;;;;;5076646;28;20040;-81
2022/04/01 10:39:24;;;;;;;4.05;2.33;;;4.90;99.90;;;;;;5077270;28;20036;-84
2022/04/01 10:42:16;;;;;;;3.83;2.10;;;4.90;99.90;;;;;;5076640;28;20047;-84
2022/04/01 10:44:50;;;;;;;5.53;2.17;;;5.10;99.90;;;;;;5075753;28;20056;-82
2022/04/01 10:47:16;;;;;;;5.78;2.15;;;5.30;99.90;;;;;;5076629;28;20048;-82
2022/04/01 10:52:27;;;;;;;3.55;1.70;;;5.30;99.90;;;;;;5076744;28;20053;-82
2022/04/01 10:55:12;;;;;;;4.57;2.10;;;5.30;99.90;;;;;;5076307;28;20048;-80
2022/04/01 10:57:42;;;;;;;3.63;2.10;;;5.30;99.90;;;;;;5076692;28;20129;-83
2022/04/01 11:00:14;;;;;;;5.85;2.00;;;5.30;99.90;;;;;;5059629;28;20507;-82
2022/04/01 11:02:40;;;;;;;7.20;2.42;;;5.20;99.90;;;;;;5076055;28;20435;-82
2022/04/01 11:05:35;;;;;;;4.88;2.25;;;5.20;99.90;;;;;;5077923;28;20040;-82
2022/04/01 11:08:19;;;;;;;6.40;1.90;;;5.20;99.90;;;;;;5072537;28;20055;-82
2022/04/01 11:11:08;;;;;;;3.55;2.00;;;5.30;99.90;;;;;;5084544;28;20037;-84
2022/04/01 11:13:34;;;;;;;3.85;2.00;;;5.30;99.90;;;;;;5095217;28;20052;-82
2022/04/01 11:16:19;;;;;;;4.95;1.88;;;5.40;99.90;;;;;;5075845;28;20047;-84
2022/04/01 11:19:16;;;;;;;3.92;2.10;;;5.60;99.90;;;;;;5079523;28;20040;-81
2022/04/01 11:21:44;;;;;;;8.23;2.10;;;5.70;99.90;;;;;;5076984;28;20094;-81
2022/04/01 11:24:33;;;;;;;4.28;1.90;;;5.90;99.90;;;;;;5060322;28;20058;-82
2022/04/01 11:27:06;;;;;;;10.93;2.20;;;6.10;99.90;;;;;;5076578;28;20072;-82
2022/04/01 11:29:32;;;;;;;5.18;2.15;;;6.30;99.90;;;;;;5075876;28;20083;-82
2022/04/01 11:32:08;;;;;;;6.05;1.92;;;6.40;99.90;;;;;;5077424;28;20040;-83
2022/04/01 11:34:54;;;;;;;5.20;2.10;;;6.60;99.90;;;;;;5077148;28;20446;-83
2022/04/01 11:37:20;;;;;;;4.13;1.90;;;6.50;99.90;;;;;;5076105;28;20488;-83
2022/04/01 11:39:45;;;;;;;5.97;2.00;;;6.40;99.90;;;;;;5075812;28;20037;-80
2022/04/01 11:42:11;;;;;;;5.82;2.03;;;6.30;99.90;;;;;;5075938;28;20099;-84
2022/04/01 11:44:37;;;;;;;3.92;1.90;;;6.30;99.90;;;;;;5059142;28;20044;-83
2022/04/01 11:47:02;;;;;;;6.43;2.00;;;6.30;99.90;;;;;;5075553;28;20127;-81
2022/04/01 11:49:28;;;;;;;4.00;1.90;;;6.10;99.90;;;;;;5076645;28;20119;-83
2022/04/01 11:51:54;;;;;;;3.80;2.13;;;5.90;99.90;;;;;;5075497;28;20116;-82
2022/04/01 11:54:21;;;;;;;4.28;1.70;;;5.70;99.90;;;;;;5058444;28;20112;-83
2022/04/01 11:56:50;;;;;;;4.20;2.17;;;5.70;99.90;;;;;;5058863;28;20123;-84
2022/04/01 11:59:16;;;;;;;3.35;1.98;;;5.80;99.90;;;;;;5077076;28;20048;-81
2022/04/01 12:02:02;;;;;;;4.65;2.17;;;5.90;99.90;;;;;;5075125;28;20036;-84
2022/04/01 12:04:30;;;;;;;6.95;1.95;;;6.10;99.90;;;;;;5076817;28;20055;-82
2022/04/01 12:09:43;;;;;;;6.97;2.00;;;6.70;99.90;;;;;;5075760;28;20056;-83
2022/04/01 12:12:09;;;;;;;3.42;1.70;;;6.90;99.90;;;;;;5075504;28;20571;-82
2022/04/01 12:14:37;;;;;;;5.25;1.85;;;7.20;99.90;;;;;;5076363;28;20044;-80
2022/04/01 12:17:07;;;;;;;3.30;1.55;;;7.50;99.90;;;;;;5076740;28;20052;-83
2022/04/01 12:19:33;;;;;;;3.28;1.50;;;7.50;99.90;;;;;;5076831;28;20043;-84
2022/04/01 12:22:00;;;;;;;4.30;1.60;;;7.50;99.90;;;;;;5076492;28;20040;-83
2022/04/01 12:24:28;;;;;;;4.40;1.50;;;7.40;99.90;;;;;;5076764;28;20084;-81
2022/04/01 12:26:54;;;;;;;3.63;1.90;;;7.30;99.90;;;;;;5076930;28;20086;-80
2022/04/01 12:29:25;;;;;;;3.47;1.58;;;7.20;99.90;;;;;;5076029;28;20040;-84
2022/04/01 12:31:59;;;;;;;2.70;1.70;;;7.30;99.90;;;;;;5075441;28;20077;-81
2022/04/01 12:34:26;;;;;;;3.58;1.48;;;7.40;99.90;;;;;;5075216;28;20045;-82
2022/04/01 12:36:59;;;;;;;4.00;1.92;;;7.40;99.90;;;;;;5074900;28;20040;-82
2022/04/01 12:39:25;;;;;;;3.78;1.45;;;7.50;99.90;;;;;;5075887;28;20048;-82
2022/04/01 12:41:52;;;;;;;2.63;1.58;;;7.60;99.90;;;;;;5075050;28;20044;-81
2022/04/01 12:44:22;;;;;;;5.05;1.70;;;7.80;99.90;;;;;;5057782;28;20507;-79
2022/04/01 12:46:48;;;;;;;2.60;1.23;;;7.70;99.90;;;;;;5057798;28;20565;-81
2022/04/01 12:49:20;;;;;;;2.97;1.55;;;7.60;99.90;;;;;;5057740;28;20044;-82
2022/04/01 12:52:17;;;;;;;3.15;1.50;;;7.60;99.90;;;;;;5058145;28;20127;-84
2022/04/01 12:54:53;;;;;;;3.83;1.80;;;7.60;99.90;;;;;;5072685;28;20049;-80
2022/04/01 12:57:19;;;;;;;4.32;1.50;;;7.60;99.90;;;;;;5074268;28;20048;-84
2022/04/01 12:59:47;;;;;;;4.53;1.65;;;7.40;99.90;;;;;;5076455;28;20033;-83
2022/04/01 13:02:18;;;;;;;4.97;1.40;;;7.20;99.90;;;;;;5075681;28;20384;-82
2022/04/01 13:04:49;;;;;;;5.68;1.75;;;7.10;99.90;;;;;;5076008;28;20040;-81
2022/04/01 13:07:15;;;;;;;3.47;1.35;;;6.90;99.90;;;;;;5074423;28;20059;-82
2022/04/01 13:09:48;;;;;;;3.90;1.80;;;6.80;99.90;;;;;;5074735;28;20392;-83
2022/04/01 13:12:18;;;;;;;4.95;2.15;;;7.00;99.90;;;;;;5074587;28;20048;-85
2022/04/01 13:14:43;;;;;;;7.03;1.75;;;7.40;99.90;;;;;;5074646;28;20044;-82
2022/04/01 13:17:15;;;;;;;4.00;1.30;;;7.70;99.90;;;;;;5074198;28;20393;-82
2022/04/01 13:19:44;;;;;;;2.88;1.48;;;7.90;99.90;;;;;;5074250;28;20519;-78
2022/04/01 13:22:11;;;;;;;4.93;1.60;;;7.80;99.90;;;;;;5074133;28;20041;-85
2022/04/01 13:24:52;;;;;;;3.83;1.05;;;7.80;99.90;;;;;;5056761;28;20064;-80
2022/04/01 13:27:21;;;;;;;2.00;1.13;;;7.60;99.90;;;;;;5073586;28;20047;-77
2022/04/01 13:29:47;;;;;;;3.47;1.30;;;7.60;99.90;;;;;;5074671;28;20055;-77
2022/04/01 13:32:14;;;;;;;4.43;1.40;;;7.60;99.90;;;;;;5074001;28;20028;-75
2022/04/01 13:34:40;;;;;;;1.88;1.17;;;7.50;99.90;;;;;;5073987;28;20047;-76
2022/04/01 13:37:08;;;;;;;3.92;1.20;;;7.30;99.90;;;;;;5073806;28;20041;-74
2022/04/01 13:39:34;;;;;;;3.78;1.70;;;7.20;99.90;;;;;;5073674;28;20044;-77
2022/04/01 13:42:01;;;;;;;3.05;1.35;;;7.10;99.90;;;;;;5072825;28;20045;-76
2022/04/01 13:44:28;;;;;;;2.80;1.50;;;7.00;99.90;;;;;;5072166;28;20504;-76
2022/04/01 13:46:54;;;;;;;5.20;1.67;;;7.00;99.90;;;;;;5072225;28;20041;-78
2022/04/01 13:49:20;;;;;;;3.25;1.40;;;6.90;99.90;;;;;;5074350;28;20063;-79
2022/04/01 13:51:46;;;;;;;4.68;1.50;;;6.90;99.90;;;;;;5072253;28;20121;-76
2022/04/01 13:54:12;;;;;;;2.97;1.35;;;6.90;99.90;;;;;;5072088;28;20140;-77
2022/04/01 13:56:38;;;;;;;4.47;1.60;;;7.00;99.90;;;;;;5076321;28;20520;-78
2022/04/01 13:59:05;;;;;;;5.68;1.25;;;7.10;99.90;;;;;;5077644;28;20189;-77
2022/04/01 14:01:32;;;;;;;3.92;1.52;;;7.30;99.90;;;;;;5077744;28;20384;-77
2022/04/01 14:03:58;;;;;;;2.38;1.00;;;7.40;99.90;;;;;;5077263;28;20040;-77
2022/04/01 14:06:24;;;;;;;4.32;1.42;;;7.40;99.90;;;;;;5075631;28;20480;-78
2022/04/01 14:08:50;;;;;;;4.47;1.58;;;7.40;99.90;;;;;;5059242;28;20044;-76
2022/04/01 14:11:16;;;;;;;4.50;1.65;;;7.40;99.90;;;;;;5076131;28;20507;-76
2022/04/01 14:13:41;;;;;;;2.35;1.08;;;7.30;99.90;;;;;;5058745;28;20041;-76
2022/04/01 14:16:07;;;;;;;6.47;1.10;;;7.50;99.90;;;;;;5075314;28;20045;-78
2022/04/01 14:18:33;;;;;;;4.40;0.93;;;7.50;99.90;;;;;;5077175;28;20036;-76
2022/04/01 14:20:58;;;;;;;2.58;1.00;;;7.50;99.90;;;;;;5058723;28;20037;-76
2022/04/01 14:23:28;;;;;;;5.82;1.30;;;7.50;99.90;;;;;;5075329;28;20082;-77
2022/04/01 14:25:58;;;;;;;2.33;1.00;;;7.50;99.90;;;;;;5076860;28;20051;-77
2022/04/01 14:28:25;;;;;;;4.68;1.10;;;7.50;99.90;;;;;;5075080;28;20048;-77
2022/04/01 14:30:51;;;;;;;2.10;1.00;;;7.30;99.90;;;;;;5075078;28;20396;-77
2022/04/01 14:33:18;;;;;;;3.45;1.13;;;7.40;99.90;;;;;;5075167;28;20496;-78
2022/04/01 14:35:46;;;;;;;3.33;1.30;;;7.40;99.90;;;;;;5076637;28;20056;-77
2022/04/01 14:38:12;;;;;;;5.65;1.10;;;7.50;99.90;;;;;;5075425;28;20041;-76
2022/04/01 14:40:38;;;;;;;3.17;1.35;;;7.60;99.90;;;;;;5075186;28;20036;-76
2022/04/01 14:43:04;;;;;;;3.63;1.13;;;7.70;99.90;;;;;;5058479;28;20040;-76
2022/04/01 14:45:31;;;;;;;4.72;1.10;;;7.90;99.90;;;;;;5074863;28;20552;-76
2022/04/01 14:47:57;;;;;;;3.10;1.13;;;7.90;99.90;;;;;;5074884;28;20140;-78
2022/04/01 14:50:22;;;;;;;3.50;1.05;;;7.70;99.90;;;;;;5076147;28;20123;-77
2022/04/01 14:52:48;;;;;;;2.10;1.00;;;7.70;99.90;;;;;;5074601;28;20110;-74
2022/04/01 14:55:14;;;;;;;4.60;1.30;;;7.80;99.90;;;;;;5074554;28;20076;-77
2022/04/01 14:57:41;;;;;;;2.92;0.90;;;7.70;99.90;;;;;;5075148;28;20032;-77
2022/04/01 15:00:08;;;;;;;3.00;1.00;;;7.70;99.90;;;;;;5076222;28;20094;-76
2022/04/01 15:02:35;;;;;;;3.88;1.00;;;7.90;99.90;;;;;;5076301;28;20423;-75
2022/04/01 15:05:01;;;;;;;4.50;1.30;;;8.00;99.90;;;;;;5057793;28;20047;-75
2022/04/01 15:07:27;;;;;;;5.78;1.77;;;8.20;99.90;;;;;;5074159;28;20049;-78
2022/04/01 15:09:55;;;;;;;6.20;2.42;;;8.40;99.90;;;;;;5075937;28;20093;-77
2022/04/01 15:12:21;;;;;;;2.17;1.00;;;8.30;99.90;;;;;;5074331;28;20036;-77
2022/04/01 15:14:47;;;;;;;2.88;0.90;;;8.40;99.90;;;;;;5074248;28;20048;-76
2022/04/01 15:17:16;;;;;;;3.05;1.17;;;8.50;99.90;;;;;;5074058;28;20445;-75
2022/04/01 15:19:42;;;;;;;5.15;1.20;;;8.50;99.90;;;;;;5075446;28;20047;-75
2022/04/01 15:22:08;;;;;;;4.00;1.25;;;8.40;99.90;;;;;;5074377;28;20545;-78
2022/04/01 15:24:34;;;;;;;3.20;1.20;;;8.10;99.90;;;;;;5075755;28;20048;-77
2022/04/01 15:27:02;;;;;;;1.75;1.00;;;8.00;99.90;;;;;;5075280;28;20059;-77
2022/04/01 15:29:29;;;;;;;3.78;1.00;;;7.90;99.90;;;;;;5073876;28;20072;-75
2022/04/01 15:31:56;;;;;;;2.70;1.15;;;7.80;99.90;;;;;;5074081;28;20067;-77
2022/04/01 15:34:22;;;;;;;5.22;1.48;;;7.60;99.90;;;;;;5073858;28;20476;-77
2022/04/01 15:36:50;;;;;;;4.28;1.10;;;7.50;99.90;;;;;;5057420;28;20048;-76
2022/04/01 15:39:21;;;;;;;6.60;1.52;;;7.40;99.90;;;;;;5077381;28;20072;-71
2022/04/01 15:41:52;;;;;;;3.63;1.48;;;7.30;99.90;;;;;;5084039;28;20047;-73
2022/04/01 15:44:25;;;;;;;5.78;1.38;;;7.20;99.90;;;;;;5058364;28;20048;-75
2022/04/01 15:46:51;;;;;;;3.05;1.40;;;7.10;99.90;;;;;;5074147;28;20546;-76
2022/04/01 15:49:21;;;;;;;3.17;1.38;;;7.00;99.90;;;;;;5075292;28;20044;-76
2022/04/01 15:51:47;;;;;;;4.95;1.63;;;6.90;99.90;;;;;;5073590;28;20037;-75
2022/04/01 15:54:13;;;;;;;4.70;1.27;;;6.80;99.90;;;;;;5073223;28;20040;-76
2022/04/01 15:56:40;;;;;;;3.72;1.38;;;6.80;99.90;;;;;;5075009;28;20040;-77
2022/04/01 15:59:07;;;;;;;2.60;1.17;;;6.70;99.90;;;;;;5075072;28;20032;-76
2022/04/01 16:01:40;;;;;;;3.28;1.55;;;6.70;99.90;;;;;;5075448;28;20070;-76
2022/04/01 16:04:14;;;;;;;4.35;1.25;;;6.70;99.90;;;;;;5074886;28;20047;-77
2022/04/01 16:06:41;;;;;;;2.90;1.42;;;6.70;99.90;;;;;;5073436;28;20124;-76
2022/04/01 16:09:07;;;;;;;6.38;1.65;;;6.70;99.90;;;;;;5073854;28;20404;-77
2022/04/01 16:11:36;;;;;;;3.85;1.45;;;6.90;99.90;;;;;;5074758;28;20396;-76
2022/04/01 16:14:04;;;;;;;5.68;1.63;;;6.80;99.90;;;;;;5075260;28;20041;-76
2022/04/01 16:16:30;;;;;;;2.30;1.00;;;6.70;99.90;;;;;;5056761;28;20043;-76
2022/04/01 16:18:56;;;;;;;4.88;1.35;;;6.60;99.90;;;;;;5056977;28;20036;-76